Time;durP1;ratioP1;P1;durP2;ratioP2;P2;SDS_P1;SDS_P2;PMS_P1;PMS_P2;Temp;Humidity;BMP_temperature;BMP_pressure;BME280_temperature;BME280_humidity;BME280_pressure;Samples;Min_cycle;Max_cycle;Signal;HPM_P1;HPM_P2
2021/04/04 00:00:47;;;;;;;21.73;10.67;;;;;;;-144.99;97.40;52240.19;5028876;28;20569;-76
2021/04/04 00:03:14;;;;;;;16.00;10.57;;;;;;;-144.99;97.41;52293.19;5025285;28;20636;-74
2021/04/04 00:05:40;;;;;;;17.77;11.33;;;;;;;-144.99;97.27;52301.34;5017081;28;20241;-74
2021/04/04 00:08:07;;;;;;;20.03;9.13;;;;;;;-144.99;97.20;52272.81;5025542;28;20626;-74
2021/04/04 00:10:33;;;;;;;22.13;8.93;;;;;;;-144.99;97.14;52280.97;5029440;28;20636;-74
2021/04/04 00:12:59;;;;;;;24.60;8.97;;;;;;;-144.99;96.84;52297.25;5026523;28;20657;-75
2021/04/04 00:15:25;;;;;;;21.00;10.27;;;;;;;-144.99;96.80;52232.03;5029816;28;20617;-74
2021/04/04 00:17:51;;;;;;;13.67;7.63;;;;;;;-144.99;96.85;52278.91;5021107;28;20759;-73
2021/04/04 00:20:19;;;;;;;16.40;7.73;;;;;;;-144.99;96.77;52333.94;5023675;28;20198;-72
2021/04/04 00:22:46;;;;;;;16.67;7.40;;;;;;;-144.99;96.95;52236.13;5021701;28;20234;-74
2021/04/04 00:25:14;;;;;;;15.07;7.40;;;;;;;-144.99;97.36;52268.72;5022120;28;20624;-72
2021/04/04 00:27:40;;;;;;;16.37;6.87;;;;;;;-144.99;97.48;52287.06;5021142;28;20637;-75
2021/04/04 00:30:08;;;;;;;20.77;9.87;;;;;;;-144.99;97.32;52280.97;5024856;28;20624;-75
2021/04/04 00:32:35;;;;;;;15.97;7.50;;;;;;;-144.99;97.27;52293.19;5031597;28;20663;-75
2021/04/04 00:35:01;;;;;;;22.73;10.90;;;;;;;-144.99;97.25;52289.13;5028502;28;20655;-76
2021/04/04 00:37:27;;;;;;;14.50;9.27;;;;;;;-144.99;96.98;52278.91;4680901;28;9999644;-77
2021/04/04 00:39:53;;;;;;;28.23;11.07;;;;;;;-144.99;96.85;52293.19;5019100;28;20290;-77
2021/04/04 00:42:19;;;;;;;15.40;8.13;;;;;;;-144.99;96.73;52319.69;5020185;28;20702;-75
2021/04/04 00:44:45;;;;;;;16.73;7.37;;;;;;;-144.99;97.00;52256.50;5028098;28;20303;-76
2021/04/04 00:47:11;;;;;;;21.27;9.40;;;;;;;-144.99;97.00;52280.97;5030386;28;20194;-72
2021/04/04 00:49:37;;;;;;;21.40;8.27;;;;;;;-144.99;97.00;52291.16;5025162;28;20205;-71
2021/04/04 00:52:03;;;;;;;27.27;9.17;;;;;;;-144.99;97.06;52301.34;5021003;28;20571;-74
2021/04/04 00:54:30;;;;;;;17.10;8.13;;;;;;;-144.99;97.19;52256.50;5027491;28;20206;-73
2021/04/04 00:56:56;;;;;;;21.43;8.00;;;;;;;-144.99;97.01;52295.22;5027207;28;20662;-73
2021/04/04 00:59:22;;;;;;;15.50;7.83;;;;;;;-144.99;96.84;52278.91;5024314;28;20661;-74
2021/04/04 01:01:48;;;;;;;14.40;8.33;;;;;;;-144.99;96.87;52285.03;5027277;28;20668;-74
2021/04/04 01:04:14;;;;;;;12.53;9.27;;;;;;;-144.99;96.97;52268.72;5026527;28;20628;-72
2021/04/04 01:06:40;;;;;;;20.30;10.83;;;;;;;-144.99;97.10;52317.66;5029867;28;20244;-74
2021/04/04 01:09:06;;;;;;;17.20;9.33;;;;;;;-144.99;97.12;52272.81;5021900;28;20214;-73
2021/04/04 01:11:41;;;;;;;14.40;9.60;;;;;;;-144.99;97.20;52293.19;5022351;28;20203;-75
2021/04/04 01:14:22;;;;;;;17.63;10.90;;;;;;;-144.99;97.36;52297.25;5027139;28;20686;-76
2021/04/04 01:16:52;;;;;;;22.53;10.53;;;;;;;-144.99;97.45;52301.34;5025477;28;20989;-76
2021/04/04 01:19:36;;;;;;;19.60;10.33;;;;;;;-144.99;97.61;52276.88;5018954;28;20637;-75
2021/04/04 01:22:14;;;;;;;22.13;10.97;;;;;;;-144.99;97.58;52321.72;5023681;28;20678;-75
2021/04/04 01:24:50;;;;;;;13.97;9.83;;;;;;;-144.99;97.47;52289.13;5019346;28;21269;-74
2021/04/04 01:27:26;;;;;;;29.07;13.97;;;;;;;-144.99;97.50;52301.34;5022129;28;20621;-74
2021/04/04 01:29:54;;;;;;;19.97;10.37;;;;;;;-144.99;97.45;52321.72;5019918;28;20642;-75
2021/04/04 01:32:21;;;;;;;21.07;10.00;;;;;;;-144.99;97.38;52303.38;5022692;28;20661;-75
2021/04/04 01:34:48;;;;;;;12.70;8.43;;;;;;;-144.99;97.19;52293.19;5027885;28;20639;-76
2021/04/04 01:37:16;;;;;;;23.13;8.63;;;;;;;-144.99;97.31;52317.66;5020674;28;20681;-75
2021/04/04 01:39:45;;;;;;;21.40;11.23;;;;;;;-144.99;97.13;52301.34;5027028;28;20675;-77
2021/04/04 01:42:14;;;;;;;20.87;11.67;;;;;;;-144.99;97.17;52309.50;5037763;28;20735;-76
2021/04/04 01:44:44;;;;;;;18.37;10.80;;;;;;;-144.99;97.01;52311.53;5022310;28;20637;-77
2021/04/04 01:47:12;;;;;;;17.50;11.90;;;;;;;-144.99;96.78;52305.41;5024015;28;20955;-75
2021/04/04 01:49:40;;;;;;;29.27;14.97;;;;;;;-144.99;96.23;52317.66;5021982;28;21792;-73
2021/04/04 01:52:07;;;;;;;23.97;14.00;;;;;;;-144.99;96.15;52317.66;5024147;28;20653;-75
2021/04/04 01:54:35;;;;;;;22.83;11.20;;;;;;;-144.99;95.88;52297.25;5017525;28;20636;-76
2021/04/04 01:57:01;;;;;;;17.40;10.77;;;;;;;-144.99;96.05;52305.41;5033968;28;20633;-71
2021/04/04 01:59:28;;;;;;;20.87;11.33;;;;;;;-144.99;96.16;52303.38;5036725;28;20626;-74
2021/04/04 02:01:55;;;;;;;23.10;14.20;;;;;;;-144.99;96.18;52260.56;5032759;28;20672;-76
2021/04/04 02:04:23;;;;;;;19.67;9.17;;;;;;;-144.99;96.50;52303.38;5030884;28;20988;-74
2021/04/04 02:06:50;;;;;;;19.87;9.13;;;;;;;-144.99;96.75;52266.69;5035143;28;20608;-74
2021/04/04 02:09:17;;;;;;;21.27;11.70;;;;;;;-144.99;96.50;52303.38;5019528;28;20646;-73
2021/04/04 02:11:45;;;;;;;14.87;9.03;;;;;;;-144.99;96.57;52309.50;5026481;28;20627;-73
2021/04/04 02:14:13;;;;;;;15.33;9.33;;;;;;;-144.99;96.33;52301.34;5031340;28;21221;-74
2021/04/04 02:16:45;;;;;;;15.53;9.57;;;;;;;-144.99;96.45;52238.16;5034076;28;20726;-73
2021/04/04 02:19:13;;;;;;;16.00;8.40;;;;;;;-144.99;96.33;52305.41;5028484;28;21186;-73
2021/04/04 02:21:42;;;;;;;16.83;10.23;;;;;;;-144.99;96.42;52278.91;5032836;28;20660;-75
2021/04/04 02:24:09;;;;;;;14.27;8.70;;;;;;;-144.99;96.40;52256.50;5029199;28;21076;-74
2021/04/04 02:26:35;;;;;;;23.80;10.40;;;;;;;-144.99;96.48;52303.38;5028029;28;20997;-71
2021/04/04 02:29:02;;;;;;;15.73;8.10;;;;;;;-144.99;96.66;52309.50;5026740;28;20652;-71
2021/04/04 02:31:32;;;;;;;18.93;9.90;;;;;;;-144.99;96.61;52260.56;5029364;28;20632;-72
2021/04/04 02:34:01;;;;;;;18.97;9.63;;;;;;;-144.99;96.64;52264.66;5028376;28;20641;-73
2021/04/04 02:36:29;;;;;;;16.73;11.67;;;;;;;-144.99;96.86;52293.19;5028909;28;20633;-72
2021/04/04 02:39:04;;;;;;;13.67;8.27;;;;;;;-144.99;97.10;52256.50;5026694;28;20632;-72
2021/04/04 02:41:32;;;;;;;23.93;9.90;;;;;;;-144.99;97.39;52285.03;5032232;28;21229;-73
2021/04/04 02:44:00;;;;;;;19.33;8.20;;;;;;;-144.99;97.67;52301.34;5032484;28;20636;-71
2021/04/04 02:46:28;;;;;;;22.10;7.33;;;;;;;-144.99;97.87;52270.78;5028613;28;20625;-74
2021/04/04 02:48:57;;;;;;;21.73;6.83;;;;;;;-144.99;98.19;52325.81;5033438;28;20632;-72
2021/04/04 02:51:28;;;;;;;17.60;8.07;;;;;;;-144.99;98.47;52293.19;5026864;28;20659;-73
2021/04/04 02:53:56;;;;;;;18.17;7.33;;;;;;;-144.99;98.45;52293.19;5026571;28;20616;-73
2021/04/04 02:56:24;;;;;;;16.73;8.27;;;;;;;-144.99;98.49;52238.16;5025021;28;21248;-73
2021/04/04 02:58:55;;;;;;;15.10;7.10;;;;;;;-144.99;98.46;52289.13;5030914;28;20648;-73
2021/04/04 03:01:24;;;;;;;17.70;7.40;;;;;;;-144.99;98.60;52256.50;5029476;28;20661;-75
2021/04/04 03:03:51;;;;;;;17.27;8.23;;;;;;;-144.99;98.73;52301.34;5030959;28;21189;-75
2021/04/04 03:06:20;;;;;;;15.80;8.30;;;;;;;-144.99;98.94;52329.88;5032364;28;20640;-74
2021/04/04 03:08:47;;;;;;;16.27;10.67;;;;;;;-144.99;98.96;52272.81;5030438;28;21219;-77
2021/04/04 03:11:16;;;;;;;13.20;6.70;;;;;;;-144.99;99.20;52315.59;5031069;28;20633;-73
2021/04/04 03:13:45;;;;;;;10.67;6.77;;;;;;;-144.99;99.44;52268.72;5034618;28;20660;-75
2021/04/04 03:16:12;;;;;;;28.40;8.53;;;;;;;-144.99;99.86;52285.03;5028646;28;20636;-74
2021/04/04 03:18:41;;;;;;;15.53;9.47;;;;;;;-144.99;99.70;52285.03;5025021;28;20637;-75
2021/04/04 03:21:09;;;;;;;20.93;10.23;;;;;;;-144.99;99.98;52305.41;5028697;28;20686;-73
2021/04/04 03:23:37;;;;;;;23.37;8.37;;;;;;;-144.99;100.00;52285.03;5032427;28;20648;-75
2021/04/04 03:26:05;;;;;;;18.33;7.13;;;;;;;-144.99;100.00;52291.16;5021985;28;20652;-75
2021/04/04 03:28:32;;;;;;;17.93;6.70;;;;;;;-144.99;100.00;52256.50;5032742;28;21338;-75
2021/04/04 03:30:59;;;;;;;23.67;8.53;;;;;;;-144.99;100.00;52258.53;5027082;28;20629;-75
2021/04/04 03:33:25;;;;;;;18.10;6.13;;;;;;;-144.99;100.00;52280.97;5027775;28;20748;-75
2021/04/04 03:35:53;;;;;;;15.73;5.90;;;;;;;-144.99;100.00;52301.34;5029944;28;21204;-75
2021/04/04 03:38:22;;;;;;;23.13;5.57;;;;;;;-144.99;100.00;52268.72;5027189;28;20637;-75
2021/04/04 03:40:49;;;;;;;16.67;6.83;;;;;;;-144.99;100.00;52289.13;5024807;28;20632;-74
2021/04/04 03:43:19;;;;;;;22.10;6.60;;;;;;;-144.99;100.00;52301.34;5025181;28;20667;-74
2021/04/04 03:45:46;;;;;;;15.27;6.70;;;;;;;-144.99;100.00;52252.44;5032650;28;20620;-75
2021/04/04 03:48:12;;;;;;;15.50;6.43;;;;;;;-144.99;100.00;52264.66;5021927;28;20679;-74
2021/04/04 03:50:40;;;;;;;21.40;10.33;;;;;;;-144.99;100.00;52260.56;5032102;28;20617;-74
2021/04/04 03:53:07;;;;;;;18.13;6.97;;;;;;;-144.99;100.00;52327.84;5029779;28;20656;-73
2021/04/04 03:55:34;;;;;;;16.80;7.00;;;;;;;-144.99;100.00;52291.16;5017081;28;20617;-74
2021/04/04 03:58:02;;;;;;;14.13;6.77;;;;;;;-144.99;100.00;52285.03;5027548;28;20973;-74
2021/04/04 04:00:30;;;;;;;19.10;7.07;;;;;;;-144.99;100.00;52295.22;5027614;28;20625;-73
2021/04/04 04:02:58;;;;;;;14.57;5.53;;;;;;;-144.99;100.00;52280.97;5025686;28;21037;-72
2021/04/04 04:05:24;;;;;;;17.90;8.60;;;;;;;-144.99;100.00;52280.97;5031568;28;20613;-74
2021/04/04 04:07:51;;;;;;;25.10;6.37;;;;;;;-144.99;100.00;52293.19;5023438;28;20621;-74
2021/04/04 04:10:18;;;;;;;17.77;6.60;;;;;;;-144.99;100.00;52260.56;5027894;28;20718;-75
2021/04/04 04:12:47;;;;;;;12.10;6.03;;;;;;;-144.99;100.00;52313.56;5030760;28;20652;-74
2021/04/04 04:15:14;;;;;;;15.13;6.67;;;;;;;-144.99;100.00;52309.50;5026466;28;20848;-74
2021/04/04 04:17:42;;;;;;;18.13;8.27;;;;;;;-144.99;100.00;52244.28;5020784;28;21039;-72
2021/04/04 04:20:10;;;;;;;13.37;6.17;;;;;;;-144.99;100.00;52285.03;5026777;28;20619;-74
2021/04/04 04:22:38;;;;;;;18.13;6.23;;;;;;;-144.99;100.00;52258.53;5030292;28;20668;-74
2021/04/04 04:25:05;;;;;;;17.40;5.93;;;;;;;-144.99;100.00;52252.44;5028300;28;20625;-75
2021/04/04 04:27:32;;;;;;;18.63;4.87;;;;;;;-144.99;100.00;52329.88;5024278;28;20668;-75
2021/04/04 04:30:01;;;;;;;8.50;6.47;;;;;;;-144.99;100.00;52264.66;5030088;28;20636;-75
2021/04/04 04:32:30;;;;;;;14.33;5.37;;;;;;;-144.99;100.00;52268.72;5023645;28;21229;-76
2021/04/04 04:34:57;;;;;;;17.43;5.87;;;;;;;-144.99;100.00;52276.88;5030332;28;20637;-79
2021/04/04 04:37:24;;;;;;;16.70;6.67;;;;;;;-144.99;100.00;52280.97;5028381;28;20652;-76
2021/04/04 04:39:51;;;;;;;21.20;6.63;;;;;;;-144.99;100.00;52301.34;5026495;28;20866;-77
2021/04/04 04:42:18;;;;;;;19.13;5.60;;;;;;;-144.99;100.00;52238.16;5031171;28;20707;-76
2021/04/04 04:44:47;;;;;;;9.80;5.63;;;;;;;-144.99;100.00;52293.19;5041301;28;20613;-79
2021/04/04 04:47:14;;;;;;;13.77;5.47;;;;;;;-144.99;100.00;52280.97;5038509;28;21167;-76
2021/04/04 04:49:43;;;;;;;15.80;4.67;;;;;;;-144.99;100.00;52276.88;5027539;28;20633;-76
2021/04/04 04:52:09;;;;;;;20.63;8.63;;;;;;;-144.99;100.00;52252.44;5019652;28;21027;-75
2021/04/04 04:54:36;;;;;;;20.03;5.13;;;;;;;-144.99;99.88;52264.66;5029823;28;20633;-73
2021/04/04 04:57:03;;;;;;;17.43;5.87;;;;;;;-144.99;99.99;52256.50;5024912;28;20656;-74
2021/04/04 04:59:29;;;;;;;14.57;5.43;;;;;;;-144.99;99.69;52289.13;5022091;28;20624;-75
2021/04/04 05:01:55;;;;;;;12.40;6.27;;;;;;;-144.99;99.64;52291.16;5030248;28;20735;-74
2021/04/04 05:04:21;;;;;;;15.80;5.27;;;;;;;-144.99;99.54;52276.88;5019700;28;20640;-73
2021/04/04 05:06:50;;;;;;;18.90;5.10;;;;;;;-144.99;99.24;52272.81;5027465;28;21158;-74
2021/04/04 05:09:18;;;;;;;8.83;4.53;;;;;;;-144.99;99.18;52252.44;5025175;28;20624;-74
2021/04/04 05:11:47;;;;;;;13.13;5.60;;;;;;;-144.99;98.82;52268.72;5030311;28;20621;-75
2021/04/04 05:14:14;;;;;;;16.00;6.40;;;;;;;-144.99;98.52;52221.84;5018795;28;20629;-75
2021/04/04 05:16:41;;;;;;;11.37;4.33;;;;;;;-144.99;98.16;52289.13;5031912;28;20625;-74
2021/04/04 05:19:09;;;;;;;14.33;6.10;;;;;;;-144.99;97.62;52244.28;5025372;28;20632;-72
2021/04/04 05:21:37;;;;;;;11.37;3.13;;;;;;;-144.99;97.49;52285.03;5023341;28;20668;-73
2021/04/04 05:24:05;;;;;;;12.57;5.53;;;;;;;-144.99;97.12;52252.44;5029964;28;20731;-73
2021/04/04 05:26:33;;;;;;;21.37;4.30;;;;;;;-144.99;96.72;52270.78;5019123;28;20626;-73
2021/04/04 05:29:02;;;;;;;15.40;3.97;;;;;;;-144.99;96.42;52289.13;5024859;28;20633;-72
2021/04/04 05:31:29;;;;;;;14.40;5.00;;;;;;;-144.99;96.08;52227.97;5028506;28;20982;-72
2021/04/04 05:33:55;;;;;;;11.70;5.23;;;;;;;-144.99;95.77;52256.50;5027824;28;20643;-72
2021/04/04 05:36:21;;;;;;;12.33;3.50;;;;;;;-144.99;95.75;52272.81;5016098;28;20727;-74
2021/04/04 05:38:47;;;;;;;21.53;6.63;;;;;;;-144.99;95.33;52276.88;5024903;28;20634;-77
2021/04/04 05:41:14;;;;;;;10.90;4.20;;;;;;;-144.99;94.85;52299.31;5028138;28;20628;-74
2021/04/04 05:43:42;;;;;;;8.27;3.57;;;;;;;-144.99;94.52;52244.28;5022099;28;20668;-71
2021/04/04 05:46:17;;;;;;;12.53;4.67;;;;;;;-144.99;94.30;52289.13;5028625;28;20628;-71
2021/04/04 05:48:56;;;;;;;12.10;2.70;;;;;;;-144.99;93.32;52289.13;5027527;28;20687;-74
2021/04/04 05:51:31;;;;;;;15.10;6.33;;;;;;;-144.99;93.26;52272.81;5025730;28;20644;-73
2021/04/04 05:54:19;;;;;;;12.27;3.83;;;;;;;-144.99;93.38;52287.06;5021229;28;20790;-73
2021/04/04 05:56:49;;;;;;;12.23;4.37;;;;;;;-144.99;92.98;52244.28;5025210;28;20622;-72
2021/04/04 05:59:23;;;;;;;14.40;3.23;;;;;;;-144.99;92.75;52278.91;5024448;28;20645;-72
2021/04/04 06:01:58;;;;;;;11.57;3.30;;;;;;;-144.99;92.56;52227.97;5028998;28;21037;-74
2021/04/04 06:04:58;;;;;;;32.00;6.93;;;;;;;-144.99;92.05;52264.66;5028143;28;21184;-74
2021/04/04 06:07:44;;;;;;;18.87;4.13;;;;;;;-144.99;92.01;52264.66;4972184;28;21018;-75
2021/04/04 06:10:13;;;;;;;13.47;3.40;;;;;;;-144.99;91.51;52276.88;5025592;28;20653;-73
2021/04/04 06:12:59;;;;;;;21.97;2.93;;;;;;;-144.99;91.49;52240.19;5032871;28;20656;-72
2021/04/04 06:15:39;;;;;;;8.67;3.27;;;;;;;-144.99;91.53;52254.47;5019394;28;20637;-73
2021/04/04 06:18:19;;;;;;;15.43;4.33;;;;;;;-144.99;91.26;52232.03;5031757;28;20612;-74
2021/04/04 06:20:49;;;;;;;12.07;3.43;;;;;;;-144.99;91.01;52215.75;5018447;28;20629;-73
2021/04/04 06:23:23;;;;;;;8.70;3.97;;;;;;;-144.99;90.95;52276.88;5025205;28;20676;-74
2021/04/04 06:26:05;;;;;;;12.97;3.57;;;;;;;-144.99;90.80;52289.13;5032508;28;20624;-73
2021/04/04 06:28:48;;;;;;;6.13;3.33;;;;;;;-144.99;90.85;52272.81;5032845;28;21217;-73
2021/04/04 06:31:21;;;;;;;9.50;2.67;;;;;;;-144.99;90.66;52278.91;5017496;28;21000;-74
2021/04/04 06:33:54;;;;;;;16.87;3.97;;;;;;;-144.99;90.72;52291.16;5028113;28;20652;-74
2021/04/04 06:36:35;;;;;;;12.63;4.20;;;;;;;-144.99;91.02;52260.56;5022975;28;20640;-72
2021/04/04 06:39:12;;;;;;;7.27;3.20;;;;;;;-144.99;91.28;52232.03;5030738;28;21039;-75
2021/04/04 06:41:50;;;;;;;8.90;3.57;;;;;;;-144.99;91.70;52272.81;5031892;28;20645;-74
2021/04/04 06:44:22;;;;;;;15.87;3.70;;;;;;;-144.99;91.95;52301.34;5020369;28;20633;-73
2021/04/04 06:47:00;;;;;;;10.90;5.30;;;;;;;-144.99;92.23;52248.34;5030901;28;20643;-75
2021/04/04 06:49:44;;;;;;;13.00;4.20;;;;;;;-144.99;92.37;52278.91;5031238;28;20643;-76
2021/04/04 06:52:23;;;;;;;15.13;5.50;;;;;;;-144.99;92.71;52256.50;5032629;28;20701;-74
2021/04/04 06:55:01;;;;;;;15.73;3.90;;;;;;;-144.99;93.12;52268.72;5022920;28;20636;-75
2021/04/04 06:57:39;;;;;;;11.87;5.00;;;;;;;-144.99;93.31;52252.44;5033409;28;21017;-77
2021/04/04 07:00:10;;;;;;;12.50;5.90;;;;;;;-144.99;93.42;52240.19;5037578;28;20737;-74
2021/04/04 07:02:46;;;;;;;13.73;3.60;;;;;;;-144.99;94.03;52264.66;5030904;28;20698;-74
2021/04/04 07:05:15;;;;;;;15.37;4.53;;;;;;;-144.99;94.27;52276.88;5045470;28;20630;-76
2021/04/04 07:08:13;;;;;;;8.90;3.67;;;;;;;-144.99;94.75;52297.25;5039795;28;20878;-74
2021/04/04 07:10:50;;;;;;;13.20;4.70;;;;;;;-144.99;95.39;52268.72;5018756;28;20624;-73
2021/04/04 07:13:42;;;;;;;12.43;6.57;;;;;;;-144.99;95.64;52268.72;5037587;28;20656;-71
2021/04/04 07:16:39;;;;;;;11.00;4.37;;;;;;;-144.99;95.53;52238.16;5032874;28;21268;-70
2021/04/04 07:19:21;;;;;;;11.37;5.20;;;;;;;-144.99;95.56;52280.97;5027173;28;21264;-73
2021/04/04 07:22:09;;;;;;;19.07;5.17;;;;;;;-144.99;95.60;52285.03;5022773;28;20682;-71
2021/04/04 07:24:48;;;;;;;9.07;4.90;;;;;;;-144.99;95.73;52289.13;5019672;28;20634;-72
2021/04/04 07:27:22;;;;;;;13.80;10.90;;;;;;;-144.99;95.61;52242.22;5019628;28;20643;-72
2021/04/04 07:30:03;;;;;;;15.07;7.87;;;;;;;-144.99;95.86;52230.00;5029728;28;20637;-75
2021/04/04 07:32:39;;;;;;;22.07;7.83;;;;;;;-144.99;95.96;52264.66;5026440;28;20704;-76
2021/04/04 07:35:10;;;;;;;15.77;7.13;;;;;;;-144.99;95.78;52272.81;5026309;28;20620;-76
2021/04/04 07:37:46;;;;;;;11.90;6.40;;;;;;;-144.99;94.95;52232.03;5029259;28;20625;-74
2021/04/04 07:40:16;;;;;;;14.87;6.60;;;;;;;-144.99;94.63;52215.75;5028024;28;20639;-74
2021/04/04 07:42:50;;;;;;;14.33;6.13;;;;;;;-144.99;93.94;52240.19;5025091;28;20673;-75
2021/04/04 07:45:22;;;;;;;10.23;4.90;;;;;;;-144.99;94.32;52301.34;5024756;28;20806;-77
2021/04/04 07:47:58;;;;;;;16.53;6.43;;;;;;;-144.99;94.54;52248.34;5032489;28;21200;-76
2021/04/04 07:50:27;;;;;;;13.53;6.27;;;;;;;-144.99;94.73;52258.53;5024024;28;20663;-77
2021/04/04 07:53:03;;;;;;;15.30;7.00;;;;;;;-144.99;95.05;52272.81;5025258;28;20704;-77
2021/04/04 07:55:36;;;;;;;12.63;6.03;;;;;;;-144.99;95.11;52280.97;5032523;28;20620;-76
2021/04/04 07:58:10;;;;;;;10.47;5.60;;;;;;;-144.99;95.18;52260.56;5030250;28;20629;-75
2021/04/04 08:00:41;;;;;;;22.90;5.83;;;;;;;-144.99;95.08;52242.22;5023323;28;20617;-75
2021/04/04 08:03:11;;;;;;;15.60;7.60;;;;;;;-144.99;94.06;52285.03;5029577;28;20665;-76
2021/04/04 08:05:42;;;;;;;9.60;4.37;;;;;;;-144.99;92.96;52268.72;5026826;28;20690;-73
2021/04/04 08:08:15;;;;;;;12.47;6.23;;;;;;;-144.99;91.82;52232.03;5030178;28;20222;-74
2021/04/04 08:10:51;;;;;;;13.17;5.93;;;;;;;-144.99;90.62;52264.66;5029853;28;20625;-78
2021/04/04 08:13:24;;;;;;;9.40;4.40;;;;;;;-144.99;90.30;52280.97;5031588;28;20659;-74
2021/04/04 08:15:58;;;;;;;12.13;5.30;;;;;;;-144.99;90.13;52280.97;5031517;28;20625;-74
2021/04/04 08:18:24;;;;;;;11.10;5.87;;;;;;;-144.99;89.58;52276.88;5031320;28;20225;-74
2021/04/04 08:20:52;;;;;;;18.87;5.70;;;;;;;-144.99;89.37;52278.91;5030220;28;21120;-73
2021/04/04 08:23:26;;;;;;;18.70;5.30;;;;;;;-144.99;89.50;52272.81;5033166;28;20720;-73
2021/04/04 08:25:57;;;;;;;13.30;5.33;;;;;;;-144.99;89.46;52246.31;5031898;28;20767;-76
2021/04/04 08:28:28;;;;;;;8.23;4.10;;;;;;;-144.99;89.72;52248.34;5031680;28;20625;-76
2021/04/04 08:30:56;;;;;;;11.13;3.83;;;;;;;-144.99;89.26;52223.88;5027923;28;20617;-77
2021/04/04 08:33:28;;;;;;;15.33;7.10;;;;;;;-144.99;89.18;52244.28;5031852;28;20651;-75
2021/04/04 08:35:57;;;;;;;9.37;5.27;;;;;;;-144.99;88.83;52244.28;5031609;28;20206;-74
2021/04/04 08:38:28;;;;;;;11.77;3.60;;;;;;;-144.99;88.82;52272.81;5031512;28;20206;-76
2021/04/04 08:40:56;;;;;;;8.97;3.30;;;;;;;-144.99;88.18;52268.72;5028847;28;20202;-78
2021/04/04 08:43:23;;;;;;;13.43;5.83;;;;;;;-144.99;88.24;52230.00;5031052;28;21257;-77
2021/04/04 08:45:56;;;;;;;13.17;5.23;;;;;;;-144.99;88.22;52285.03;5031053;28;20621;-75
2021/04/04 08:48:24;;;;;;;13.73;3.70;;;;;;;-144.99;87.90;52244.28;5031113;28;20675;-75
2021/04/04 08:50:52;;;;;;;10.07;4.97;;;;;;;-144.99;88.02;52230.00;5029324;28;21216;-77
2021/04/04 08:53:29;;;;;;;8.77;3.13;;;;;;;-144.99;88.51;52264.66;5030683;28;20633;-75
2021/04/04 08:55:55;;;;;;;8.50;3.70;;;;;;;-144.99;88.67;52280.97;5031081;28;20617;-75
2021/04/04 08:58:25;;;;;;;8.23;4.60;;;;;;;-144.99;87.95;52240.19;5031629;28;20206;-76
2021/04/04 09:01:01;;;;;;;12.10;3.40;;;;;;;-144.99;87.04;52236.13;5030746;28;20644;-77
2021/04/04 09:03:27;;;;;;;14.20;2.67;;;;;;;-144.99;86.27;52280.97;5030465;28;20232;-74
2021/04/04 09:06:01;;;;;;;11.63;2.30;;;;;;;-144.99;85.97;52256.50;5032786;28;20210;-76
2021/04/04 09:08:30;;;;;;;5.57;2.83;;;;;;;-144.99;85.88;52207.59;5031872;28;20199;-76
2021/04/04 09:10:56;;;;;;;10.53;3.13;;;;;;;-144.99;85.54;52256.50;5030490;28;20629;-76
2021/04/04 09:13:23;;;;;;;10.93;4.83;;;;;;;-144.99;85.67;52276.88;5029672;28;20630;-75
2021/04/04 09:15:53;;;;;;;6.07;2.47;;;;;;;-144.99;85.86;52266.69;5034330;28;20214;-74
2021/04/04 09:18:19;;;;;;;9.17;2.73;;;;;;;-144.99;85.84;52276.88;5039920;28;20240;-75
2021/04/04 09:20:47;;;;;;;8.47;3.40;;;;;;;-144.99;85.70;52240.19;5032689;28;20194;-78
2021/04/04 09:23:16;;;;;;;9.17;4.03;;;;;;;-144.99;85.56;52248.34;5031578;28;20280;-74
2021/04/04 09:25:51;;;;;;;7.47;2.37;;;;;;;-144.99;84.68;52252.44;5029105;28;20199;-75
2021/04/04 09:28:18;;;;;;;8.80;4.40;;;;;;;-144.99;84.50;52260.56;5025122;28;20202;-74
2021/04/04 09:30:46;;;;;;;5.60;3.17;;;;;;;-144.99;84.94;52252.44;5031678;28;20679;-74
2021/04/04 09:33:14;;;;;;;7.27;2.30;;;;;;;-144.99;85.24;52207.59;5026539;28;20215;-74
2021/04/04 09:35:41;;;;;;;7.20;2.97;;;;;;;-144.99;85.23;52297.25;5026373;28;20194;-74
2021/04/04 09:38:10;;;;;;;6.10;2.43;;;;;;;-144.99;85.39;52264.66;5036134;28;20710;-73
2021/04/04 09:40:38;;;;;;;10.20;3.33;;;;;;;-144.99;85.77;52264.66;5034124;28;20232;-75
2021/04/04 09:43:09;;;;;;;8.20;2.57;;;;;;;-144.99;85.93;52321.72;5025212;28;20305;-76
2021/04/04 09:45:36;;;;;;;8.80;3.50;;;;;;;-144.99;85.92;52256.50;5027947;28;20260;-77
2021/04/04 09:48:20;;;;;;;19.47;3.83;;;;;;;-144.99;86.58;52258.53;5023276;28;20205;-76
2021/04/04 09:50:46;;;;;;;14.53;4.93;;;;;;;-144.99;86.91;52219.81;5032905;28;20210;-74
2021/04/04 09:53:12;;;;;;;9.90;3.83;;;;;;;-144.99;86.39;52272.81;5023334;28;20222;-73
2021/04/04 09:55:44;;;;;;;8.03;2.20;;;;;;;-144.99;86.95;52248.34;5031283;28;20186;-74
2021/04/04 09:58:14;;;;;;;10.03;2.67;;;;;;;-144.99;86.63;52285.03;5041652;28;20202;-78
2021/04/04 10:00:41;;;;;;;14.47;3.90;;;;;;;-144.99;86.42;52219.81;5042849;28;20202;-77
2021/04/04 10:03:11;;;;;;;9.67;3.10;;;;;;;-144.99;85.55;52260.56;5038939;28;20606;-77
2021/04/04 10:05:41;;;;;;;10.73;2.57;;;;;;;-144.99;84.04;52262.63;5028380;28;20218;-73
2021/04/04 10:08:09;;;;;;;9.40;3.50;;;;;;;-144.99;82.27;52236.13;5031114;28;20198;-75
2021/04/04 10:10:36;;;;;;;13.93;2.97;;;;;;;-144.99;81.46;52244.28;5031995;28;20298;-75
2021/04/04 10:13:03;;;;;;;7.47;2.50;;;;;;;-144.99;80.32;52223.88;5031725;28;20222;-76
2021/04/04 10:15:39;;;;;;;10.87;2.43;;;;;;;-144.99;79.28;52256.50;5029891;28;20561;-75
2021/04/04 10:18:07;;;;;;;6.43;2.00;;;;;;;-144.99;78.62;52236.13;5023728;28;20224;-76
2021/04/04 10:20:35;;;;;;;9.43;2.37;;;;;;;-144.99;77.45;52260.56;5045489;23;20238;-79
2021/04/04 10:23:03;;;;;;;5.23;1.93;;;;;;;-144.99;76.59;52252.44;5018926;28;20215;-76
2021/04/04 10:25:29;;;;;;;2.73;1.30;;;;;;;-144.99;76.48;52236.13;5030159;28;20688;-77
2021/04/04 10:28:00;;;;;;;5.77;1.97;;;;;;;-144.99;76.82;52256.50;5032387;28;20217;-78
2021/04/04 10:30:28;;;;;;;6.23;1.70;;;;;;;-144.99;76.88;52203.50;5033223;28;20232;-80
2021/04/04 10:32:57;;;;;;;11.10;2.73;;;;;;;-144.99;76.48;52268.72;5034821;28;20225;-76
2021/04/04 10:35:32;;;;;;;11.37;2.50;;;;;;;-144.99;76.82;52289.13;5037050;28;20202;-75
2021/04/04 10:38:02;;;;;;;11.07;3.47;;;;;;;-144.99;76.91;52232.03;5022561;28;20202;-79
2021/04/04 10:40:43;;;;;;;8.23;2.83;;;;;;;-144.99;77.11;52264.66;5037251;28;20563;-76
2021/04/04 10:43:09;;;;;;;9.13;2.67;;;;;;;-144.99;77.54;52240.19;5034683;28;20226;-77
2021/04/04 10:45:35;;;;;;;10.07;3.90;;;;;;;-144.99;79.07;52244.28;5033042;28;20221;-75
2021/04/04 10:48:07;;;;;;;11.63;2.73;;;;;;;-144.99;79.87;52244.28;5032100;28;20206;-76
2021/04/04 10:50:34;;;;;;;9.30;3.43;;;;;;;-144.99;80.09;52236.13;5031414;28;20222;-77
2021/04/04 10:53:00;;;;;;;10.53;2.70;;;;;;;-144.99;80.59;52252.44;5026564;28;20198;-76
2021/04/04 10:55:27;;;;;;;12.20;3.97;;;;;;;-144.99;80.94;52225.94;5026324;28;20696;-79
2021/04/04 10:57:54;;;;;;;5.80;2.93;;;;;;;-144.99;81.09;52236.13;5034976;28;20195;-79
2021/04/04 11:00:21;;;;;;;6.57;2.20;;;;;;;-144.99;81.37;52240.19;5033732;28;20245;-78
2021/04/04 11:02:48;;;;;;;9.77;2.20;;;;;;;-144.99;81.12;52211.66;5033815;28;20226;-77
2021/04/04 11:05:17;;;;;;;4.63;2.63;;;;;;;-144.99;79.85;52258.53;5036531;28;20264;-77
2021/04/04 11:07:43;;;;;;;12.17;2.67;;;;;;;-144.99;79.25;52256.50;5029438;28;20202;-75
2021/04/04 11:10:11;;;;;;;4.70;1.60;;;;;;;-144.99;78.71;52236.13;5024150;28;20219;-75
2021/04/04 11:12:38;;;;;;;7.93;2.40;;;;;;;-144.99;78.49;52227.97;5027902;28;20799;-76
2021/04/04 11:15:07;;;;;;;8.00;2.67;;;;;;;-144.99;77.50;52250.38;5031681;28;20214;-76
2021/04/04 11:17:35;;;;;;;6.13;1.73;;;;;;;-144.99;77.77;52252.44;5030697;28;20214;-76
2021/04/04 11:20:04;;;;;;;8.03;3.30;;;;;;;-144.99;77.56;52254.47;5016313;28;20249;-79
2021/04/04 11:22:33;;;;;;;6.63;2.37;;;;;;;-144.99;78.04;52242.22;5030314;28;20276;-76